sensor_id;sensor_type;location;lat;lon;timestamp;temperature;humidity
7014;DHT22;3547;50.774;12.918;2023-12-04T00:01:25;-6.10;1.00
7014;DHT22;3547;50.774;12.918;2023-12-04T00:03:52;-6.10;1.00
7014;DHT22;3547;50.774;12.918;2023-12-04T00:06:19;-6.20;1.00
7014;DHT22;3547;50.774;12.918;2023-12-04T00:08:45;-6.20;1.00
7014;DHT22;3547;50.774;12.918;2023-12-04T00:11:11;-6.20;1.00
7014;DHT22;3547;50.774;12.918;2023-12-04T00:13:37;-6.20;1.00
7014;DHT22;3547;50.774;12.918;2023-12-04T00:16:04;-6.20;1.00
7014;DHT22;3547;50.774;12.918;2023-12-04T00:18:30;-6.30;1.00
7014;DHT22;3547;50.774;12.918;2023-12-04T00:20:56;-6.30;1.00
7014;DHT22;3547;50.774;12.918;2023-12-04T00:26:45;-6.30;1.00
7014;DHT22;3547;50.774;12.918;2023-12-04T00:29:11;-6.20;1.00
7014;DHT22;3547;50.774;12.918;2023-12-04T00:31:37;-6.20;1.00
7014;DHT22;3547;50.774;12.918;2023-12-04T00:34:03;-6.10;1.00
7014;DHT22;3547;50.774;12.918;2023-12-04T00:36:29;-6.20;1.00
7014;DHT22;3547;50.774;12.918;2023-12-04T00:38:55;-6.30;1.00
7014;DHT22;3547;50.774;12.918;2023-12-04T00:41:22;-6.40;1.00
7014;DHT22;3547;50.774;12.918;2023-12-04T00:43:48;-6.30;1.00
7014;DHT22;3547;50.774;12.918;2023-12-04T00:46:14;-6.20;1.00
7014;DHT22;3547;50.774;12.918;2023-12-04T00:48:40;-6.10;1.00
7014;DHT22;3547;50.774;12.918;2023-12-04T00:51:07;-6.10;1.00
7014;DHT22;3547;50.774;12.918;2023-12-04T00:53:34;-6.00;1.00
7014;DHT22;3547;50.774;12.918;2023-12-04T00:56:00;-5.90;1.00
7014;DHT22;3547;50.774;12.918;2023-12-04T00:58:26;-5.80;1.00
7014;DHT22;3547;50.774;12.918;2023-12-04T01:00:52;-5.70;1.00
7014;DHT22;3547;50.774;12.918;2023-12-04T01:03:20;-5.70;1.00
7014;DHT22;3547;50.774;12.918;2023-12-04T01:05:50;-5.60;1.00
7014;DHT22;3547;50.774;12.918;2023-12-04T01:08:17;-5.40;1.00
7014;DHT22;3547;50.774;12.918;2023-12-04T01:10:43;-5.40;1.00
7014;DHT22;3547;50.774;12.918;2023-12-04T01:13:09;-5.40;1.00
7014;DHT22;3547;50.774;12.918;2023-12-04T01:15:35;-5.40;1.00
7014;DHT22;3547;50.774;12.918;2023-12-04T01:18:02;-5.30;1.00
7014;DHT22;3547;50.774;12.918;2023-12-04T01:20:28;-5.20;1.00
7014;DHT22;3547;50.774;12.918;2023-12-04T01:22:55;-5.20;1.00
7014;DHT22;3547;50.774;12.918;2023-12-04T01:25:21;-5.30;1.00
7014;DHT22;3547;50.774;12.918;2023-12-04T01:27:53;-5.30;1.00
7014;DHT22;3547;50.774;12.918;2023-12-04T01:30:20;-5.30;1.00
7014;DHT22;3547;50.774;12.918;2023-12-04T01:32:46;-5.30;1.00
7014;DHT22;3547;50.774;12.918;2023-12-04T01:35:12;-5.30;1.00
7014;DHT22;3547;50.774;12.918;2023-12-04T01:37:38;-5.30;1.00
7014;DHT22;3547;50.774;12.918;2023-12-04T01:40:05;-5.30;1.00
7014;DHT22;3547;50.774;12.918;2023-12-04T01:42:32;-5.30;1.00
7014;DHT22;3547;50.774;12.918;2023-12-04T01:44:58;-5.30;1.00
7014;DHT22;3547;50.774;12.918;2023-12-04T01:47:25;-5.40;1.00
7014;DHT22;3547;50.774;12.918;2023-12-04T01:49:51;-5.30;1.00
7014;DHT22;3547;50.774;12.918;2023-12-04T01:52:18;-5.30;1.00
7014;DHT22;3547;50.774;12.918;2023-12-04T01:54:44;-5.50;1.00
7014;DHT22;3547;50.774;12.918;2023-12-04T01:57:10;-5.50;1.00
7014;DHT22;3547;50.774;12.918;2023-12-04T01:59:37;-5.60;1.00
7014;DHT22;3547;50.774;12.918;2023-12-04T02:02:04;-5.60;1.00
7014;DHT22;3547;50.774;12.918;2023-12-04T02:04:33;-5.60;1.00
7014;DHT22;3547;50.774;12.918;2023-12-04T02:07:00;-5.60;1.00
7014;DHT22;3547;50.774;12.918;2023-12-04T02:09:30;-5.70;1.00
7014;DHT22;3547;50.774;12.918;2023-12-04T02:15:20;-5.60;1.00
7014;DHT22;3547;50.774;12.918;2023-12-04T02:17:46;-5.60;1.00
7014;DHT22;3547;50.774;12.918;2023-12-04T02:20:13;-5.70;1.00
7014;DHT22;3547;50.774;12.918;2023-12-04T02:22:40;-5.70;1.00
7014;DHT22;3547;50.774;12.918;2023-12-04T02:25:07;-5.70;1.00
7014;DHT22;3547;50.774;12.918;2023-12-04T02:27:42;-5.70;1.00
7014;DHT22;3547;50.774;12.918;2023-12-04T02:30:12;-5.70;1.00
7014;DHT22;3547;50.774;12.918;2023-12-04T02:32:45;-5.70;1.00
7014;DHT22;3547;50.774;12.918;2023-12-04T02:35:12;-5.80;1.00
7014;DHT22;3547;50.774;12.918;2023-12-04T02:37:40;-5.70;1.00
7014;DHT22;3547;50.774;12.918;2023-12-04T02:40:07;-5.80;1.00
7014;DHT22;3547;50.774;12.918;2023-12-04T02:45:56;-5.70;1.00
7014;DHT22;3547;50.774;12.918;2023-12-04T02:48:23;-5.60;1.00
7014;DHT22;3547;50.774;12.918;2023-12-04T02:50:49;-5.60;1.00
7014;DHT22;3547;50.774;12.918;2023-12-04T02:53:15;-5.60;1.00
7014;DHT22;3547;50.774;12.918;2023-12-04T02:55:41;-5.50;1.00
7014;DHT22;3547;50.774;12.918;2023-12-04T02:58:07;-5.60;1.00
7014;DHT22;3547;50.774;12.918;2023-12-04T03:00:33;-5.60;1.00
7014;DHT22;3547;50.774;12.918;2023-12-04T03:02:59;-5.70;1.00
7014;DHT22;3547;50.774;12.918;2023-12-04T03:05:25;-5.80;1.00
7014;DHT22;3547;50.774;12.918;2023-12-04T03:07:52;-5.80;1.00
7014;DHT22;3547;50.774;12.918;2023-12-04T03:10:18;-5.70;1.00
7014;DHT22;3547;50.774;12.918;2023-12-04T03:12:44;-5.70;1.00
7014;DHT22;3547;50.774;12.918;2023-12-04T03:15:15;-5.70;1.00
7014;DHT22;3547;50.774;12.918;2023-12-04T03:17:41;-5.70;1.00
7014;DHT22;3547;50.774;12.918;2023-12-04T03:20:07;-5.70;1.00
7014;DHT22;3547;50.774;12.918;2023-12-04T03:22:39;-5.70;1.00
7014;DHT22;3547;50.774;12.918;2023-12-04T03:25:05;-5.70;1.00
7014;DHT22;3547;50.774;12.918;2023-12-04T03:27:32;-5.60;1.00
7014;DHT22;3547;50.774;12.918;2023-12-04T03:30:01;-5.60;1.00
7014;DHT22;3547;50.774;12.918;2023-12-04T03:32:32;-5.60;1.00
7014;DHT22;3547;50.774;12.918;2023-12-04T03:35:01;-5.50;1.00
7014;DHT22;3547;50.774;12.918;2023-12-04T03:37:27;-5.60;1.00
7014;DHT22;3547;50.774;12.918;2023-12-04T03:39:53;-5.60;1.00
7014;DHT22;3547;50.774;12.918;2023-12-04T03:42:19;-5.60;1.00
7014;DHT22;3547;50.774;12.918;2023-12-04T03:44:45;-5.60;1.00
7014;DHT22;3547;50.774;12.918;2023-12-04T03:47:11;-5.50;1.00
7014;DHT22;3547;50.774;12.918;2023-12-04T03:49:37;-5.50;1.00
7014;DHT22;3547;50.774;12.918;2023-12-04T03:52:04;-5.40;1.00
7014;DHT22;3547;50.774;12.918;2023-12-04T03:54:33;-5.40;1.00
7014;DHT22;3547;50.774;12.918;2023-12-04T03:56:59;-5.40;1.00
7014;DHT22;3547;50.774;12.918;2023-12-04T03:59:25;-5.40;1.00
7014;DHT22;3547;50.774;12.918;2023-12-04T04:01:52;-5.40;1.00
7014;DHT22;3547;50.774;12.918;2023-12-04T04:04:20;-5.30;1.00
7014;DHT22;3547;50.774;12.918;2023-12-04T04:06:46;-5.20;1.00
7014;DHT22;3547;50.774;12.918;2023-12-04T04:09:13;-5.10;1.00
7014;DHT22;3547;50.774;12.918;2023-12-04T04:11:39;-5.10;1.00
7014;DHT22;3547;50.774;12.918;2023-12-04T04:14:06;-5.10;1.00
7014;DHT22;3547;50.774;12.918;2023-12-04T04:16:32;-5.00;1.00
7014;DHT22;3547;50.774;12.918;2023-12-04T04:18:58;-4.90;1.00
7014;DHT22;3547;50.774;12.918;2023-12-04T04:21:24;-4.80;1.00
7014;DHT22;3547;50.774;12.918;2023-12-04T04:23:50;-4.70;1.00
7014;DHT22;3547;50.774;12.918;2023-12-04T04:26:16;-4.60;1.00
7014;DHT22;3547;50.774;12.918;2023-12-04T04:28:42;-4.60;1.00
7014;DHT22;3547;50.774;12.918;2023-12-04T04:31:08;-4.50;1.00
7014;DHT22;3547;50.774;12.918;2023-12-04T04:33:35;-4.50;1.00
7014;DHT22;3547;50.774;12.918;2023-12-04T04:36:01;-4.40;1.00
7014;DHT22;3547;50.774;12.918;2023-12-04T04:38:27;-4.40;1.00
7014;DHT22;3547;50.774;12.918;2023-12-04T04:40:53;-4.40;1.00
7014;DHT22;3547;50.774;12.918;2023-12-04T04:43:20;-4.30;1.00
7014;DHT22;3547;50.774;12.918;2023-12-04T04:45:46;-4.30;1.00
7014;DHT22;3547;50.774;12.918;2023-12-04T04:48:12;-4.30;1.00
7014;DHT22;3547;50.774;12.918;2023-12-04T04:50:38;-4.30;1.00
7014;DHT22;3547;50.774;12.918;2023-12-04T04:53:04;-4.30;1.00
7014;DHT22;3547;50.774;12.918;2023-12-04T04:55:30;-4.30;1.00
7014;DHT22;3547;50.774;12.918;2023-12-04T04:57:57;-4.30;1.00
7014;DHT22;3547;50.774;12.918;2023-12-04T05:00:24;-4.20;1.00
7014;DHT22;3547;50.774;12.918;2023-12-04T05:02:51;-4.20;1.00
7014;DHT22;3547;50.774;12.918;2023-12-04T05:05:17;-4.20;1.00
7014;DHT22;3547;50.774;12.918;2023-12-04T05:07:43;-4.20;1.00
7014;DHT22;3547;50.774;12.918;2023-12-04T05:10:09;-4.10;1.00
7014;DHT22;3547;50.774;12.918;2023-12-04T05:15:58;-4.10;1.00
7014;DHT22;3547;50.774;12.918;2023-12-04T05:18:25;-4.30;1.00
7014;DHT22;3547;50.774;12.918;2023-12-04T05:20:51;-4.30;1.00
7014;DHT22;3547;50.774;12.918;2023-12-04T05:23:17;-4.30;1.00
7014;DHT22;3547;50.774;12.918;2023-12-04T05:25:44;-4.30;1.00
7014;DHT22;3547;50.774;12.918;2023-12-04T05:28:10;-4.30;1.00
7014;DHT22;3547;50.774;12.918;2023-12-04T05:30:36;-4.50;1.00
7014;DHT22;3547;50.774;12.918;2023-12-04T05:33:02;-4.50;1.00
7014;DHT22;3547;50.774;12.918;2023-12-04T05:35:28;-4.50;1.00
7014;DHT22;3547;50.774;12.918;2023-12-04T05:37:54;-4.40;1.00
7014;DHT22;3547;50.774;12.918;2023-12-04T05:40:20;-4.50;1.00
7014;DHT22;3547;50.774;12.918;2023-12-04T05:42:46;-4.50;1.00
7014;DHT22;3547;50.774;12.918;2023-12-04T05:45:13;-4.40;1.00
7014;DHT22;3547;50.774;12.918;2023-12-04T05:47:39;-4.30;1.00
7014;DHT22;3547;50.774;12.918;2023-12-04T05:50:08;-4.30;1.00
7014;DHT22;3547;50.774;12.918;2023-12-04T05:52:35;-4.10;1.00
7014;DHT22;3547;50.774;12.918;2023-12-04T05:55:06;-4.00;1.00
7014;DHT22;3547;50.774;12.918;2023-12-04T05:57:33;-3.90;1.00
7014;DHT22;3547;50.774;12.918;2023-12-04T05:59:59;-3.80;1.00
7014;DHT22;3547;50.774;12.918;2023-12-04T06:02:25;-3.80;1.00
7014;DHT22;3547;50.774;12.918;2023-12-04T06:04:53;-3.70;1.00
7014;DHT22;3547;50.774;12.918;2023-12-04T06:07:19;-3.70;1.00
7014;DHT22;3547;50.774;12.918;2023-12-04T06:09:46;-3.60;1.00
7014;DHT22;3547;50.774;12.918;2023-12-04T06:12:12;-3.60;1.00
7014;DHT22;3547;50.774;12.918;2023-12-04T06:14:41;-3.50;1.00
7014;DHT22;3547;50.774;12.918;2023-12-04T06:17:07;-3.40;1.00
7014;DHT22;3547;50.774;12.918;2023-12-04T06:19:33;-3.40;1.00
7014;DHT22;3547;50.774;12.918;2023-12-04T06:21:59;-3.40;1.00
7014;DHT22;3547;50.774;12.918;2023-12-04T06:24:26;-3.40;1.00
7014;DHT22;3547;50.774;12.918;2023-12-04T06:26:55;-3.30;1.00
7014;DHT22;3547;50.774;12.918;2023-12-04T06:29:23;-3.30;1.00
7014;DHT22;3547;50.774;12.918;2023-12-04T06:31:53;-3.20;1.00
7014;DHT22;3547;50.774;12.918;2023-12-04T06:34:20;-3.20;1.00
7014;DHT22;3547;50.774;12.918;2023-12-04T06:36:46;-3.10;1.00
7014;DHT22;3547;50.774;12.918;2023-12-04T06:39:13;-3.10;1.00
7014;DHT22;3547;50.774;12.918;2023-12-04T06:41:42;-3.00;1.00
7014;DHT22;3547;50.774;12.918;2023-12-04T06:44:09;-3.00;1.00
7014;DHT22;3547;50.774;12.918;2023-12-04T06:46:39;-3.00;1.00
7014;DHT22;3547;50.774;12.918;2023-12-04T06:49:05;-3.00;1.00
7014;DHT22;3547;50.774;12.918;2023-12-04T06:51:34;-3.00;1.00
7014;DHT22;3547;50.774;12.918;2023-12-04T06:54:01;-2.90;1.00
7014;DHT22;3547;50.774;12.918;2023-12-04T06:56:27;-2.90;1.00
7014;DHT22;3547;50.774;12.918;2023-12-04T06:58:53;-2.90;1.00
7014;DHT22;3547;50.774;12.918;2023-12-04T07:01:19;-2.80;1.00
7014;DHT22;3547;50.774;12.918;2023-12-04T07:03:45;-2.80;1.00
7014;DHT22;3547;50.774;12.918;2023-12-04T07:06:11;-2.80;1.00
7014;DHT22;3547;50.774;12.918;2023-12-04T07:08:38;-2.70;1.00
7014;DHT22;3547;50.774;12.918;2023-12-04T07:11:04;-2.70;1.00
7014;DHT22;3547;50.774;12.918;2023-12-04T07:13:30;-2.70;1.00
7014;DHT22;3547;50.774;12.918;2023-12-04T07:15:57;-2.60;1.00
7014;DHT22;3547;50.774;12.918;2023-12-04T07:18:25;-2.60;1.00
7014;DHT22;3547;50.774;12.918;2023-12-04T07:20:52;-2.60;1.00
7014;DHT22;3547;50.774;12.918;2023-12-04T07:26:40;-2.40;1.00
7014;DHT22;3547;50.774;12.918;2023-12-04T07:29:07;-2.40;1.00
7014;DHT22;3547;50.774;12.918;2023-12-04T07:31:33;-2.40;1.00
7014;DHT22;3547;50.774;12.918;2023-12-04T07:33:59;-2.30;1.00
7014;DHT22;3547;50.774;12.918;2023-12-04T07:36:28;-2.20;1.00
7014;DHT22;3547;50.774;12.918;2023-12-04T07:38:54;-2.20;1.00
7014;DHT22;3547;50.774;12.918;2023-12-04T07:41:43;-2.20;1.00
7014;DHT22;3547;50.774;12.918;2023-12-04T07:47:34;-2.10;1.00
7014;DHT22;3547;50.774;12.918;2023-12-04T07:50:00;-2.10;1.00
7014;DHT22;3547;50.774;12.918;2023-12-04T07:52:27;-2.00;1.00
7014;DHT22;3547;50.774;12.918;2023-12-04T07:54:55;-1.90;1.00
7014;DHT22;3547;50.774;12.918;2023-12-04T07:57:22;-1.80;1.00
7014;DHT22;3547;50.774;12.918;2023-12-04T07:59:48;-1.80;1.00
7014;DHT22;3547;50.774;12.918;2023-12-04T08:02:14;-1.80;1.00
7014;DHT22;3547;50.774;12.918;2023-12-04T08:04:40;-1.70;1.00
7014;DHT22;3547;50.774;12.918;2023-12-04T08:07:07;-1.50;1.00
7014;DHT22;3547;50.774;12.918;2023-12-04T08:09:33;-1.50;1.00
7014;DHT22;3547;50.774;12.918;2023-12-04T08:11:59;-1.40;1.00
7014;DHT22;3547;50.774;12.918;2023-12-04T08:14:26;-1.40;1.00
7014;DHT22;3547;50.774;12.918;2023-12-04T08:16:54;-1.40;1.00
7014;DHT22;3547;50.774;12.918;2023-12-04T08:19:20;-1.30;1.00
7014;DHT22;3547;50.774;12.918;2023-12-04T08:21:46;-1.30;1.00
7014;DHT22;3547;50.774;12.918;2023-12-04T08:24:12;-1.20;1.00
7014;DHT22;3547;50.774;12.918;2023-12-04T08:26:38;-1.10;1.00
7014;DHT22;3547;50.774;12.918;2023-12-04T08:29:04;-1.00;1.00
7014;DHT22;3547;50.774;12.918;2023-12-04T08:31:31;-1.00;1.00
7014;DHT22;3547;50.774;12.918;2023-12-04T08:33:58;-0.90;1.00
7014;DHT22;3547;50.774;12.918;2023-12-04T08:36:24;-0.90;1.00
7014;DHT22;3547;50.774;12.918;2023-12-04T08:38:53;-0.90;1.00
7014;DHT22;3547;50.774;12.918;2023-12-04T08:41:19;-0.80;1.00
7014;DHT22;3547;50.774;12.918;2023-12-04T08:43:45;-0.80;1.00
7014;DHT22;3547;50.774;12.918;2023-12-04T08:46:15;-0.80;1.00
7014;DHT22;3547;50.774;12.918;2023-12-04T08:48:48;-0.70;1.00
7014;DHT22;3547;50.774;12.918;2023-12-04T08:51:18;-0.70;1.00
7014;DHT22;3547;50.774;12.918;2023-12-04T08:53:46;-0.70;1.00
7014;DHT22;3547;50.774;12.918;2023-12-04T08:56:12;-0.70;1.00
7014;DHT22;3547;50.774;12.918;2023-12-04T08:58:38;-0.70;1.00
7014;DHT22;3547;50.774;12.918;2023-12-04T09:01:04;-0.70;1.00
7014;DHT22;3547;50.774;12.918;2023-12-04T09:03:31;-0.60;1.00
7014;DHT22;3547;50.774;12.918;2023-12-04T09:05:57;-0.60;1.00
7014;DHT22;3547;50.774;12.918;2023-12-04T09:08:24;-0.50;1.00
7014;DHT22;3547;50.774;12.918;2023-12-04T09:10:53;-0.50;1.00
7014;DHT22;3547;50.774;12.918;2023-12-04T09:13:19;-0.50;1.00
7014;DHT22;3547;50.774;12.918;2023-12-04T09:15:45;-0.50;1.00
7014;DHT22;3547;50.774;12.918;2023-12-04T09:18:11;-0.40;1.00
7014;DHT22;3547;50.774;12.918;2023-12-04T09:20:37;-0.40;1.00
7014;DHT22;3547;50.774;12.918;2023-12-04T09:23:03;-0.30;1.00
7014;DHT22;3547;50.774;12.918;2023-12-04T09:25:30;-0.20;1.00
7014;DHT22;3547;50.774;12.918;2023-12-04T09:27:56;-0.10;1.00
7014;DHT22;3547;50.774;12.918;2023-12-04T09:30:22;0.00;1.00
7014;DHT22;3547;50.774;12.918;2023-12-04T09:32:48;0.30;1.00
7014;DHT22;3547;50.774;12.918;2023-12-04T09:35:14;0.50;1.00
7014;DHT22;3547;50.774;12.918;2023-12-04T09:37:41;0.50;1.00
7014;DHT22;3547;50.774;12.918;2023-12-04T09:40:08;0.50;1.00
7014;DHT22;3547;50.774;12.918;2023-12-04T09:42:34;0.50;1.00
7014;DHT22;3547;50.774;12.918;2023-12-04T09:45:01;0.50;1.00
7014;DHT22;3547;50.774;12.918;2023-12-04T09:47:30;0.40;1.00
7014;DHT22;3547;50.774;12.918;2023-12-04T09:49:59;0.40;1.00
7014;DHT22;3547;50.774;12.918;2023-12-04T09:52:27;0.60;1.00
7014;DHT22;3547;50.774;12.918;2023-12-04T09:54:53;0.70;1.00
7014;DHT22;3547;50.774;12.918;2023-12-04T09:57:21;0.90;1.00
7014;DHT22;3547;50.774;12.918;2023-12-04T09:59:49;1.00;1.00
7014;DHT22;3547;50.774;12.918;2023-12-04T10:02:15;1.10;1.00
7014;DHT22;3547;50.774;12.918;2023-12-04T10:04:42;1.00;1.00
7014;DHT22;3547;50.774;12.918;2023-12-04T10:07:09;0.80;1.00
7014;DHT22;3547;50.774;12.918;2023-12-04T10:09:35;0.70;1.00
7014;DHT22;3547;50.774;12.918;2023-12-04T10:12:01;0.70;1.00
7014;DHT22;3547;50.774;12.918;2023-12-04T10:14:27;0.70;1.00
7014;DHT22;3547;50.774;12.918;2023-12-04T10:16:54;0.60;1.00
7014;DHT22;3547;50.774;12.918;2023-12-04T10:19:22;0.80;1.00
7014;DHT22;3547;50.774;12.918;2023-12-04T10:21:59;0.70;1.00
7014;DHT22;3547;50.774;12.918;2023-12-04T10:24:38;0.70;1.00
7014;DHT22;3547;50.774;12.918;2023-12-04T10:27:06;0.60;1.00
7014;DHT22;3547;50.774;12.918;2023-12-04T10:29:46;0.60;1.00
7014;DHT22;3547;50.774;12.918;2023-12-04T10:32:13;0.60;1.00
7014;DHT22;3547;50.774;12.918;2023-12-04T10:34:50;0.50;1.00
7014;DHT22;3547;50.774;12.918;2023-12-04T10:37:20;0.50;1.00
7014;DHT22;3547;50.774;12.918;2023-12-04T10:39:50;0.40;1.00
7014;DHT22;3547;50.774;12.918;2023-12-04T10:42:29;0.50;1.00
7014;DHT22;3547;50.774;12.918;2023-12-04T10:45:00;0.50;1.00
7014;DHT22;3547;50.774;12.918;2023-12-04T10:47:36;0.60;1.00
7014;DHT22;3547;50.774;12.918;2023-12-04T10:50:12;0.70;1.00
7014;DHT22;3547;50.774;12.918;2023-12-04T10:53:01;0.80;1.00
7014;DHT22;3547;50.774;12.918;2023-12-04T10:55:30;1.00;1.00
7014;DHT22;3547;50.774;12.918;2023-12-04T10:58:04;1.20;1.00
7014;DHT22;3547;50.774;12.918;2023-12-04T11:04:17;1.10;1.00
7014;DHT22;3547;50.774;12.918;2023-12-04T11:06:49;1.20;1.00
7014;DHT22;3547;50.774;12.918;2023-12-04T11:09:16;1.20;1.00
7014;DHT22;3547;50.774;12.918;2023-12-04T11:11:51;1.20;1.00
7014;DHT22;3547;50.774;12.918;2023-12-04T11:14:22;1.20;1.00
7014;DHT22;3547;50.774;12.918;2023-12-04T11:16:51;1.30;1.00
7014;DHT22;3547;50.774;12.918;2023-12-04T11:19:32;1.40;1.00
7014;DHT22;3547;50.774;12.918;2023-12-04T11:22:00;1.60;1.00
7014;DHT22;3547;50.774;12.918;2023-12-04T11:24:28;1.90;1.00
7014;DHT22;3547;50.774;12.918;2023-12-04T11:26:54;2.30;1.00
7014;DHT22;3547;50.774;12.918;2023-12-04T11:29:22;2.50;1.00
7014;DHT22;3547;50.774;12.918;2023-12-04T11:31:48;2.70;1.00
7014;DHT22;3547;50.774;12.918;2023-12-04T11:34:14;2.60;1.00
7014;DHT22;3547;50.774;12.918;2023-12-04T11:36:45;2.60;1.00
7014;DHT22;3547;50.774;12.918;2023-12-04T11:39:12;2.60;1.00
7014;DHT22;3547;50.774;12.918;2023-12-04T11:41:40;2.70;1.00
7014;DHT22;3547;50.774;12.918;2023-12-04T11:44:12;2.60;1.00
7014;DHT22;3547;50.774;12.918;2023-12-04T11:46:58;2.70;1.00
7014;DHT22;3547;50.774;12.918;2023-12-04T11:49:30;2.60;1.00
7014;DHT22;3547;50.774;12.918;2023-12-04T11:52:03;2.70;1.00
7014;DHT22;3547;50.774;12.918;2023-12-04T11:55:01;2.60;1.00
7014;DHT22;3547;50.774;12.918;2023-12-04T11:57:54;2.60;1.00
7014;DHT22;3547;50.774;12.918;2023-12-04T12:00:23;2.50;1.00
7014;DHT22;3547;50.774;12.918;2023-12-04T12:05:20;2.60;1.00
7014;DHT22;3547;50.774;12.918;2023-12-04T12:07:51;2.50;1.00
7014;DHT22;3547;50.774;12.918;2023-12-04T12:10:18;2.50;1.00
7014;DHT22;3547;50.774;12.918;2023-12-04T12:12:45;2.40;1.00
7014;DHT22;3547;50.774;12.918;2023-12-04T12:15:16;2.30;1.00
7014;DHT22;3547;50.774;12.918;2023-12-04T12:17:52;2.20;1.00
7014;DHT22;3547;50.774;12.918;2023-12-04T12:20:22;2.00;1.00
7014;DHT22;3547;50.774;12.918;2023-12-04T12:28:54;1.70;1.00
7014;DHT22;3547;50.774;12.918;2023-12-04T12:31:20;1.60;1.00
7014;DHT22;3547;50.774;12.918;2023-12-04T12:33:46;1.60;1.00
7014;DHT22;3547;50.774;12.918;2023-12-04T12:36:18;1.50;1.00
7014;DHT22;3547;50.774;12.918;2023-12-04T12:38:49;1.50;1.00
7014;DHT22;3547;50.774;12.918;2023-12-04T12:41:18;1.60;1.00
7014;DHT22;3547;50.774;12.918;2023-12-04T12:43:44;1.60;1.00
7014;DHT22;3547;50.774;12.918;2023-12-04T12:46:13;1.60;1.00
7014;DHT22;3547;50.774;12.918;2023-12-04T12:48:43;1.70;1.00
7014;DHT22;3547;50.774;12.918;2023-12-04T12:51:13;1.50;1.00
7014;DHT22;3547;50.774;12.918;2023-12-04T12:54:00;1.60;1.00
7014;DHT22;3547;50.774;12.918;2023-12-04T12:56:29;1.70;1.00
7014;DHT22;3547;50.774;12.918;2023-12-04T12:58:59;1.70;1.00
7014;DHT22;3547;50.774;12.918;2023-12-04T13:01:31;1.70;1.00
7014;DHT22;3547;50.774;12.918;2023-12-04T13:03:57;1.50;1.00
7014;DHT22;3547;50.774;12.918;2023-12-04T13:06:28;0.90;1.00
7014;DHT22;3547;50.774;12.918;2023-12-04T13:12:35;0.70;1.00
7014;DHT22;3547;50.774;12.918;2023-12-04T13:15:02;1.00;1.00
7014;DHT22;3547;50.774;12.918;2023-12-04T13:17:29;0.70;1.00
7014;DHT22;3547;50.774;12.918;2023-12-04T13:19:56;0.70;1.00
7014;DHT22;3547;50.774;12.918;2023-12-04T13:22:22;0.80;1.00
7014;DHT22;3547;50.774;12.918;2023-12-04T13:24:49;0.60;1.00
7014;DHT22;3547;50.774;12.918;2023-12-04T13:27:16;0.80;1.00
7014;DHT22;3547;50.774;12.918;2023-12-04T13:29:44;0.70;1.00
7014;DHT22;3547;50.774;12.918;2023-12-04T13:32:10;0.60;1.00
7014;DHT22;3547;50.774;12.918;2023-12-04T13:34:37;0.60;1.00
7014;DHT22;3547;50.774;12.918;2023-12-04T13:37:03;0.60;1.00
7014;DHT22;3547;50.774;12.918;2023-12-04T13:39:33;0.50;1.00
7014;DHT22;3547;50.774;12.918;2023-12-04T13:42:14;0.60;1.00
7014;DHT22;3547;50.774;12.918;2023-12-04T13:45:00;0.70;1.00
7014;DHT22;3547;50.774;12.918;2023-12-04T13:47:27;0.70;1.00
7014;DHT22;3547;50.774;12.918;2023-12-04T13:49:53;0.60;1.00
7014;DHT22;3547;50.774;12.918;2023-12-04T13:52:21;0.60;1.00
7014;DHT22;3547;50.774;12.918;2023-12-04T13:54:50;0.70;1.00
7014;DHT22;3547;50.774;12.918;2023-12-04T13:57:18;0.70;1.00
7014;DHT22;3547;50.774;12.918;2023-12-04T13:59:48;0.70;1.00
7014;DHT22;3547;50.774;12.918;2023-12-04T14:02:14;0.80;1.00
7014;DHT22;3547;50.774;12.918;2023-12-04T14:04:40;0.80;1.00
7014;DHT22;3547;50.774;12.918;2023-12-04T14:07:07;0.60;1.00
7014;DHT22;3547;50.774;12.918;2023-12-04T14:09:37;0.60;1.00
7014;DHT22;3547;50.774;12.918;2023-12-04T14:12:04;0.60;1.00
7014;DHT22;3547;50.774;12.918;2023-12-04T14:14:30;0.40;1.00
7014;DHT22;3547;50.774;12.918;2023-12-04T14:16:56;0.50;1.00
7014;DHT22;3547;50.774;12.918;2023-12-04T14:19:23;0.30;1.00
7014;DHT22;3547;50.774;12.918;2023-12-04T14:21:49;0.30;1.00
7014;DHT22;3547;50.774;12.918;2023-12-04T14:24:15;0.10;1.00
7014;DHT22;3547;50.774;12.918;2023-12-04T14:26:45;0.00;1.00
7014;DHT22;3547;50.774;12.918;2023-12-04T14:29:11;0.00;1.00
7014;DHT22;3547;50.774;12.918;2023-12-04T14:31:41;0.10;1.00
7014;DHT22;3547;50.774;12.918;2023-12-04T14:34:07;0.10;1.00
7014;DHT22;3547;50.774;12.918;2023-12-04T14:36:33;-0.10;1.00
7014;DHT22;3547;50.774;12.918;2023-12-04T14:39:00;-0.10;1.00
7014;DHT22;3547;50.774;12.918;2023-12-04T14:41:26;-0.20;1.00
7014;DHT22;3547;50.774;12.918;2023-12-04T14:43:53;-0.20;1.00
7014;DHT22;3547;50.774;12.918;2023-12-04T14:46:20;-0.20;1.00
7014;DHT22;3547;50.774;12.918;2023-12-04T14:48:46;-0.20;1.00
7014;DHT22;3547;50.774;12.918;2023-12-04T14:51:12;-0.20;1.00
7014;DHT22;3547;50.774;12.918;2023-12-04T14:53:39;-0.30;1.00
7014;DHT22;3547;50.774;12.918;2023-12-04T14:56:11;-0.20;1.00
7014;DHT22;3547;50.774;12.918;2023-12-04T14:58:37;-0.30;1.00
7014;DHT22;3547;50.774;12.918;2023-12-04T15:01:06;-0.30;1.00
7014;DHT22;3547;50.774;12.918;2023-12-04T15:03:48;-0.40;1.00
7014;DHT22;3547;50.774;12.918;2023-12-04T15:06:14;-0.40;1.00
7014;DHT22;3547;50.774;12.918;2023-12-04T15:08:58;-0.70;1.00
7014;DHT22;3547;50.774;12.918;2023-12-04T15:11:43;-0.70;1.00
7014;DHT22;3547;50.774;12.918;2023-12-04T15:14:13;-0.80;1.00
7014;DHT22;3547;50.774;12.918;2023-12-04T15:17:08;-0.70;1.00
7014;DHT22;3547;50.774;12.918;2023-12-04T15:19:53;-1.00;1.00
7014;DHT22;3547;50.774;12.918;2023-12-04T15:22:25;-0.90;1.00
7014;DHT22;3547;50.774;12.918;2023-12-04T15:24:52;-1.00;1.00
7014;DHT22;3547;50.774;12.918;2023-12-04T15:27:19;-1.00;1.00
7014;DHT22;3547;50.774;12.918;2023-12-04T15:29:45;-1.00;1.00
7014;DHT22;3547;50.774;12.918;2023-12-04T15:32:11;-1.00;1.00
7014;DHT22;3547;50.774;12.918;2023-12-04T15:34:37;-1.10;1.00
7014;DHT22;3547;50.774;12.918;2023-12-04T15:37:04;-1.10;1.00
7014;DHT22;3547;50.774;12.918;2023-12-04T15:39:33;-1.20;1.00
7014;DHT22;3547;50.774;12.918;2023-12-04T15:41:59;-1.40;1.00
7014;DHT22;3547;50.774;12.918;2023-12-04T15:44:25;-1.20;1.00
7014;DHT22;3547;50.774;12.918;2023-12-04T15:46:51;-1.20;1.00
7014;DHT22;3547;50.774;12.918;2023-12-04T15:49:17;-1.40;1.00
7014;DHT22;3547;50.774;12.918;2023-12-04T15:51:43;-1.50;1.00
7014;DHT22;3547;50.774;12.918;2023-12-04T15:54:10;-1.40;1.00
7014;DHT22;3547;50.774;12.918;2023-12-04T15:56:36;-1.40;1.00
7014;DHT22;3547;50.774;12.918;2023-12-04T15:59:02;-1.40;1.00
7014;DHT22;3547;50.774;12.918;2023-12-04T16:01:29;-1.40;1.00
7014;DHT22;3547;50.774;12.918;2023-12-04T16:03:55;-1.30;1.00
7014;DHT22;3547;50.774;12.918;2023-12-04T16:06:21;-1.20;1.00
7014;DHT22;3547;50.774;12.918;2023-12-04T16:08:47;-1.20;1.00
7014;DHT22;3547;50.774;12.918;2023-12-04T16:11:16;-1.20;1.00
7014;DHT22;3547;50.774;12.918;2023-12-04T16:13:44;-1.20;1.00
7014;DHT22;3547;50.774;12.918;2023-12-04T16:16:10;-1.40;1.00
7014;DHT22;3547;50.774;12.918;2023-12-04T16:18:37;-1.60;1.00
7014;DHT22;3547;50.774;12.918;2023-12-04T16:21:05;-1.80;1.00
7014;DHT22;3547;50.774;12.918;2023-12-04T16:23:31;-1.70;1.00
7014;DHT22;3547;50.774;12.918;2023-12-04T16:25:57;-1.60;1.00
7014;DHT22;3547;50.774;12.918;2023-12-04T16:28:24;-1.60;1.00
7014;DHT22;3547;50.774;12.918;2023-12-04T16:30:51;-1.70;1.00
7014;DHT22;3547;50.774;12.918;2023-12-04T16:33:17;-1.70;1.00
7014;DHT22;3547;50.774;12.918;2023-12-04T16:35:46;-1.60;1.00
7014;DHT22;3547;50.774;12.918;2023-12-04T16:38:16;-1.60;1.00
7014;DHT22;3547;50.774;12.918;2023-12-04T16:40:45;-1.60;1.00
7014;DHT22;3547;50.774;12.918;2023-12-04T16:43:14;-1.50;1.00
7014;DHT22;3547;50.774;12.918;2023-12-04T16:45:40;-1.70;1.00
7014;DHT22;3547;50.774;12.918;2023-12-04T16:48:06;-1.80;1.00